Time;durP1;ratioP1;P1;durP2;ratioP2;P2;SDS_P1;SDS_P2;PMS_P1;PMS_P2;Temp;Humidity;BMP_temperature;BMP_pressure;BME280_temperature;BME280_humidity;BME280_pressure;Samples;Min_cycle;Max_cycle;Signal;HPM_P1;HPM_P2
2023/12/31 00:00:12;;;;;;;;;;;;;;;9.76;58.73;98844.58;67603;1282;1015922;-64
2023/12/31 00:03:35;;;;;;;;;;;;;;;9.71;59.37;98836.98;67582;1282;1016745;-67
2023/12/31 00:06:38;;;;;;;;;;;;;;;9.85;59.54;98837.20;67558;1282;1016220;-64
2023/12/31 00:09:41;;;;;;;;;;;;;;;9.85;59.09;98834.63;67612;1282;1016454;-63
2023/12/31 00:12:43;;;;;;;;;;;;;;;9.87;59.23;98838.86;67568;1282;1016258;-64
2023/12/31 00:15:46;;;;;;;;;;;;;;;9.89;58.86;98839.09;67539;1282;1018526;-65
2023/12/31 00:18:48;;;;;;;;;;;;;;;9.77;58.94;98839.58;67573;1282;1016421;-68
2023/12/31 00:21:51;;;;;;;;;;;;;;;9.75;59.78;98838.67;67558;1282;1016727;-65
2023/12/31 00:24:54;;;;;;;;;;;;;;;9.76;60.05;98837.04;67541;1282;1016412;-65
2023/12/31 00:27:57;;;;;;;;;;;;;;;9.67;60.16;98839.98;67628;1282;1016310;-61
2023/12/31 00:31:00;;;;;;;;;;;;;;;9.61;60.48;98840.70;67564;1282;1015729;-62
2023/12/31 00:34:03;;;;;;;;;;;;;;;9.64;60.00;98841.38;67588;1282;1016471;-63
2023/12/31 00:37:05;;;;;;;;;;;;;;;9.54;59.62;98844.72;67605;1282;1016475;-66
2023/12/31 00:40:08;;;;;;;;;;;;;;;9.43;59.99;98844.16;67547;1282;1016756;-67
2023/12/31 00:43:11;;;;;;;;;;;;;;;9.47;59.83;98846.87;67605;1282;1016821;-68
2023/12/31 00:46:13;;;;;;;;;;;;;;;9.51;59.70;98844.71;67608;1282;1015882;-70
2023/12/31 00:49:16;;;;;;;;;;;;;;;9.52;60.14;98847.48;67546;1282;1016462;-69
2023/12/31 00:52:19;;;;;;;;;;;;;;;9.51;60.32;98842.09;67604;1282;1016521;-61
2023/12/31 00:55:21;;;;;;;;;;;;;;;9.55;59.66;98846.42;67570;1282;1015961;-67
2023/12/31 00:58:24;;;;;;;;;;;;;;;9.47;59.46;98844.95;67541;1282;1016162;-63
2023/12/31 01:01:27;;;;;;;;;;;;;;;9.51;59.38;98847.32;67600;1282;1016451;-68
2023/12/31 01:04:30;;;;;;;;;;;;;;;9.50;59.16;98844.81;67571;1282;1016473;-62
2023/12/31 01:07:32;;;;;;;;;;;;;;;9.50;58.98;98843.05;67577;1282;1015862;-66
2023/12/31 01:10:35;;;;;;;;;;;;;;;9.56;58.35;98840.09;67594;1282;1016437;-66
2023/12/31 01:13:38;;;;;;;;;;;;;;;9.42;58.49;98836.66;67569;1282;1016258;-68
2023/12/31 01:16:41;;;;;;;;;;;;;;;9.26;58.51;98831.66;67562;1282;1016208;-69
2023/12/31 01:19:44;;;;;;;;;;;;;;;9.17;58.16;98834.58;67573;1282;1016503;-66
2023/12/31 01:22:47;;;;;;;;;;;;;;;9.04;57.76;98835.60;67524;1282;1016115;-66
2023/12/31 01:25:49;;;;;;;;;;;;;;;8.93;58.36;98834.13;67593;1282;1016214;-64
2023/12/31 01:28:52;;;;;;;;;;;;;;;8.90;58.16;98839.15;67553;1282;1015965;-67
2023/12/31 01:31:55;;;;;;;;;;;;;;;8.86;58.66;98842.38;67523;1282;1016419;-67
2023/12/31 01:34:58;;;;;;;;;;;;;;;8.80;58.79;98840.59;67589;1282;1016066;-66
2023/12/31 01:38:00;;;;;;;;;;;;;;;8.75;58.68;98837.38;67569;1282;1016474;-65
2023/12/31 01:41:07;;;;;;;;;;;;;;;8.81;58.13;98841.92;67555;1282;1018191;-68
2023/12/31 01:44:09;;;;;;;;;;;;;;;8.72;58.58;98848.67;67608;1282;1016188;-71
2023/12/31 01:47:12;;;;;;;;;;;;;;;8.71;58.27;98843.86;67573;1282;1016073;-61
2023/12/31 01:50:15;;;;;;;;;;;;;;;8.60;57.86;98838.34;67546;1282;1016468;-64
2023/12/31 01:53:18;;;;;;;;;;;;;;;8.56;58.28;98838.37;67575;1282;1016489;-67
2023/12/31 01:56:20;;;;;;;;;;;;;;;8.56;58.25;98837.45;67594;1282;1015974;-67
2023/12/31 01:59:23;;;;;;;;;;;;;;;8.55;58.08;98830.37;67559;1282;1016549;-65
2023/12/31 02:02:25;;;;;;;;;;;;;;;8.62;58.11;98830.55;67619;1282;1016447;-66
2023/12/31 02:05:28;;;;;;;;;;;;;;;8.65;58.03;98834.75;67577;1282;1018358;-62
2023/12/31 02:08:31;;;;;;;;;;;;;;;8.62;58.03;98828.28;67538;1282;1016224;-64
2023/12/31 02:11:34;;;;;;;;;;;;;;;8.54;57.48;98825.03;67594;1282;1016066;-70
2023/12/31 02:14:37;;;;;;;;;;;;;;;8.40;58.23;98824.35;67535;1282;1016101;-62
2023/12/31 02:17:40;;;;;;;;;;;;;;;8.44;58.24;98819.79;67601;1282;1016338;-62
2023/12/31 02:20:44;;;;;;;;;;;;;;;8.53;58.18;98814.77;67590;1282;1016118;-63
2023/12/31 02:23:47;;;;;;;;;;;;;;;8.44;57.97;98811.27;67574;1282;1016390;-64
2023/12/31 02:26:49;;;;;;;;;;;;;;;8.32;58.40;98816.55;67532;1282;1016353;-65
2023/12/31 02:29:52;;;;;;;;;;;;;;;8.44;57.91;98820.65;67580;1282;1015891;-62
2023/12/31 02:32:55;;;;;;;;;;;;;;;8.44;57.38;98821.53;67569;1282;1016234;-64
2023/12/31 02:35:57;;;;;;;;;;;;;;;8.56;57.20;98825.78;67552;1282;1016337;-66
2023/12/31 02:39:00;;;;;;;;;;;;;;;8.35;56.96;98830.35;67575;1282;1016484;-64
2023/12/31 02:42:03;;;;;;;;;;;;;;;8.29;56.73;98839.01;67561;1282;1016460;-67
2023/12/31 02:45:05;;;;;;;;;;;;;;;8.20;57.11;98842.06;67507;1282;1016465;-64
2023/12/31 02:48:08;;;;;;;;;;;;;;;8.15;56.56;98846.14;67575;1282;1015994;-62
2023/12/31 02:51:11;;;;;;;;;;;;;;;8.08;57.12;98846.35;67571;1282;1016442;-67
2023/12/31 02:54:14;;;;;;;;;;;;;;;8.07;57.00;98844.29;67501;1282;1016577;-63
2023/12/31 02:57:16;;;;;;;;;;;;;;;7.99;56.87;98848.85;67554;1282;1016499;-68
2023/12/31 03:00:19;;;;;;;;;;;;;;;8.02;57.19;98851.14;67581;1282;1016458;-66
2023/12/31 03:03:22;;;;;;;;;;;;;;;8.05;56.86;98852.61;67533;1282;1016439;-64
2023/12/31 03:06:24;;;;;;;;;;;;;;;8.13;56.66;98856.20;67582;1282;1016340;-63
2023/12/31 03:09:27;;;;;;;;;;;;;;;8.11;56.05;98858.05;67560;1282;1016443;-63
2023/12/31 03:12:30;;;;;;;;;;;;;;;7.91;56.33;98861.48;67536;1282;1016487;-63
2023/12/31 03:15:32;;;;;;;;;;;;;;;7.81;56.43;98863.67;67549;1282;1016156;-61
2023/12/31 03:18:35;;;;;;;;;;;;;;;7.64;56.41;98862.45;67544;1282;1016442;-70
2023/12/31 03:21:38;;;;;;;;;;;;;;;7.57;56.69;98859.27;67514;1282;1016452;-68
2023/12/31 03:24:40;;;;;;;;;;;;;;;7.61;56.50;98859.94;67549;1282;1016416;-71
2023/12/31 03:27:45;;;;;;;;;;;;;;;7.57;56.41;98859.65;67518;1282;1016770;-62
2023/12/31 03:30:48;;;;;;;;;;;;;;;7.59;56.34;98859.69;67536;1282;1016414;-67
2023/12/31 03:33:51;;;;;;;;;;;;;;;7.46;56.31;98865.39;67565;1282;1016459;-61
2023/12/31 03:36:53;;;;;;;;;;;;;;;7.27;56.42;98863.81;67537;1282;1015892;-65
2023/12/31 03:39:56;;;;;;;;;;;;;;;7.14;56.54;98867.04;67529;1283;1016559;-61
2023/12/31 03:42:59;;;;;;;;;;;;;;;7.20;56.85;98873.35;67576;1282;1016514;-61
2023/12/31 03:46:01;;;;;;;;;;;;;;;7.37;56.62;98871.55;67579;1282;1017460;-62
2023/12/31 03:49:04;;;;;;;;;;;;;;;7.38;56.47;98873.22;67532;1282;1017919;-62
2023/12/31 03:52:07;;;;;;;;;;;;;;;7.46;56.60;98876.69;67581;1282;1016500;-59
2023/12/31 03:55:10;;;;;;;;;;;;;;;7.50;56.90;98877.38;67533;1282;1018443;-64
2023/12/31 03:58:13;;;;;;;;;;;;;;;7.55;56.98;98878.53;67532;1282;1016436;-64
2023/12/31 04:01:16;;;;;;;;;;;;;;;7.54;57.25;98876.84;67565;1282;1015745;-60
2023/12/31 04:04:18;;;;;;;;;;;;;;;7.62;57.11;98866.53;67552;1282;1016147;-61
2023/12/31 04:07:21;;;;;;;;;;;;;;;7.64;57.27;98869.92;67579;1282;1015895;-61
2023/12/31 04:10:24;;;;;;;;;;;;;;;7.80;57.09;98868.42;67567;1282;1016247;-60
2023/12/31 04:13:26;;;;;;;;;;;;;;;7.83;56.54;98865.16;67559;1282;1016380;-61
2023/12/31 04:16:29;;;;;;;;;;;;;;;7.88;56.44;98861.77;67574;1282;1016458;-63
2023/12/31 04:19:32;;;;;;;;;;;;;;;7.83;56.65;98859.40;67556;1282;1016428;-67
2023/12/31 04:22:44;;;;;;;;;;;;;;;;;;;;;
2023/12/31 04:25:47;;;;;;;;;;;;;;;7.86;57.00;98866.59;67572;1282;1016482;-63
2023/12/31 04:28:50;;;;;;;;;;;;;;;7.92;57.13;98867.66;67524;1282;1016292;-65
2023/12/31 04:31:52;;;;;;;;;;;;;;;7.99;56.97;98868.05;67539;1282;1016401;-66
2023/12/31 04:34:55;;;;;;;;;;;;;;;8.00;57.11;98867.10;67596;1282;1016450;-61
2023/12/31 04:37:58;;;;;;;;;;;;;;;8.06;57.15;98862.11;67586;1282;1016458;-60
2023/12/31 04:41:00;;;;;;;;;;;;;;;8.08;57.01;98859.39;67529;1282;1016640;-61
2023/12/31 04:44:03;;;;;;;;;;;;;;;8.11;56.91;98864.12;67574;1282;1016437;-65
2023/12/31 04:47:06;;;;;;;;;;;;;;;8.15;57.06;98865.52;67537;1282;1016422;-64
2023/12/31 04:50:10;;;;;;;;;;;;;;;8.09;56.43;98864.56;67520;1282;1016196;-61
2023/12/31 04:53:15;;;;;;;;;;;;;;;7.92;56.44;98867.50;67527;1282;1016436;-70
2023/12/31 04:56:18;;;;;;;;;;;;;;;7.93;56.58;98868.69;67538;1282;1016595;-67
2023/12/31 04:59:21;;;;;;;;;;;;;;;8.01;56.43;98867.08;67543;1282;1016333;-70
2023/12/31 05:02:23;;;;;;;;;;;;;;;7.95;56.24;98864.95;67582;1282;1016442;-70
2023/12/31 05:05:26;;;;;;;;;;;;;;;7.85;56.14;98861.27;67573;1282;1016417;-62
2023/12/31 05:08:29;;;;;;;;;;;;;;;7.66;56.32;98865.48;67540;1282;1016258;-62
2023/12/31 05:11:31;;;;;;;;;;;;;;;7.41;56.66;98859.65;67581;1282;1016901;-65
2023/12/31 05:14:34;;;;;;;;;;;;;;;7.34;57.63;98857.08;67551;1282;1016499;-67
2023/12/31 05:17:37;;;;;;;;;;;;;;;7.36;58.26;98855.20;67492;1282;1016466;-62
2023/12/31 05:20:39;;;;;;;;;;;;;;;7.48;57.77;98852.25;67567;1282;1016495;-61
2023/12/31 05:23:42;;;;;;;;;;;;;;;7.53;57.22;98852.52;67550;1282;1018904;-61
2023/12/31 05:26:45;;;;;;;;;;;;;;;7.46;56.62;98847.48;67542;1282;1016452;-60
2023/12/31 05:29:48;;;;;;;;;;;;;;;7.34;56.71;98844.73;67576;1282;1017220;-64
2023/12/31 05:32:51;;;;;;;;;;;;;;;7.27;56.85;98844.02;67558;1282;1016385;-62
2023/12/31 05:35:54;;;;;;;;;;;;;;;7.25;57.00;98837.29;67575;1282;1017308;-66
2023/12/31 05:38:56;;;;;;;;;;;;;;;7.29;57.04;98836.61;67555;1282;1016872;-61
2023/12/31 05:41:59;;;;;;;;;;;;;;;7.36;56.65;98829.64;67539;1283;1016419;-60
2023/12/31 05:45:03;;;;;;;;;;;;;;;7.42;56.03;98823.09;67580;1282;1016769;-65
2023/12/31 05:48:06;;;;;;;;;;;;;;;7.34;55.72;98821.05;67574;1282;1016477;-61
2023/12/31 05:51:08;;;;;;;;;;;;;;;7.13;55.86;98822.20;67556;1282;1016392;-60
2023/12/31 05:54:11;;;;;;;;;;;;;;;6.97;55.94;98817.73;67523;1282;1016015;-64
2023/12/31 05:57:14;;;;;;;;;;;;;;;6.80;56.39;98817.98;67575;1282;1016502;-61
2023/12/31 06:00:17;;;;;;;;;;;;;;;6.80;56.62;98820.63;67520;1282;1016525;-64
2023/12/31 06:03:20;;;;;;;;;;;;;;;6.77;56.70;98815.17;67597;1282;1016475;-63
2023/12/31 06:06:22;;;;;;;;;;;;;;;6.73;57.34;98822.15;67569;1282;1016413;-61
2023/12/31 06:09:26;;;;;;;;;;;;;;;6.73;57.49;98822.48;67512;1282;1016511;-60
2023/12/31 06:12:31;;;;;;;;;;;;;;;6.74;57.09;98820.36;67559;1282;1019707;-65
2023/12/31 06:15:34;;;;;;;;;;;;;;;6.78;57.07;98817.02;67567;1282;1016427;-59
2023/12/31 06:18:37;;;;;;;;;;;;;;;6.76;56.80;98818.86;67534;1282;1016305;-64
2023/12/31 06:21:40;;;;;;;;;;;;;;;6.73;56.98;98813.42;67573;1282;1016156;-61
2023/12/31 06:24:42;;;;;;;;;;;;;;;6.61;56.98;98813.61;67545;1282;1017124;-62
2023/12/31 06:27:45;;;;;;;;;;;;;;;6.47;57.10;98809.75;67518;1282;1016686;-64
2023/12/31 06:30:48;;;;;;;;;;;;;;;6.34;57.35;98810.33;67556;1282;1016216;-64
2023/12/31 06:33:51;;;;;;;;;;;;;;;6.27;57.90;98810.61;67579;1282;1016516;-62
2023/12/31 06:36:54;;;;;;;;;;;;;;;6.33;57.68;98809.32;67558;1282;1016975;-64
2023/12/31 06:39:57;;;;;;;;;;;;;;;6.46;57.77;98805.10;67507;1282;1016495;-64
2023/12/31 06:43:00;;;;;;;;;;;;;;;6.58;57.43;98805.95;67559;1282;1016385;-70
2023/12/31 06:46:03;;;;;;;;;;;;;;;6.69;57.46;98806.48;67528;1282;1016414;-69
2023/12/31 06:49:05;;;;;;;;;;;;;;;6.68;56.78;98802.54;67559;1282;1016301;-61
2023/12/31 06:52:08;;;;;;;;;;;;;;;6.58;56.41;98803.16;67548;1282;1016201;-62
2023/12/31 06:55:12;;;;;;;;;;;;;;;6.49;56.48;98799.04;67551;1282;1016175;-64
2023/12/31 06:58:14;;;;;;;;;;;;;;;6.49;56.88;98798.19;67544;1282;1016408;-64
2023/12/31 07:01:17;;;;;;;;;;;;;;;6.39;56.91;98798.98;67511;1282;1016305;-65
2023/12/31 07:04:20;;;;;;;;;;;;;;;6.19;57.34;98799.65;67559;1282;1015797;-60
2023/12/31 07:07:22;;;;;;;;;;;;;;;6.16;57.83;98796.67;67545;1282;1016494;-62
2023/12/31 07:10:25;;;;;;;;;;;;;;;6.25;58.74;98794.20;67535;1282;1016408;-64
2023/12/31 07:13:28;;;;;;;;;;;;;;;6.46;58.88;98798.85;67582;1282;1016507;-65
2023/12/31 07:16:31;;;;;;;;;;;;;;;6.58;59.02;98804.02;67491;1282;1016360;-64
2023/12/31 07:19:33;;;;;;;;;;;;;;;6.67;59.27;98800.67;67513;1282;1016897;-62
2023/12/31 07:22:37;;;;;;;;;;;;;;;6.73;59.74;98800.23;67570;1282;1016529;-61
2023/12/31 07:25:40;;;;;;;;;;;;;;;6.87;60.22;98794.55;67548;1282;1016417;-65
2023/12/31 07:28:43;;;;;;;;;;;;;;;7.03;60.24;98793.63;67548;1282;1016407;-64
2023/12/31 07:31:45;;;;;;;;;;;;;;;7.23;60.01;98792.73;67517;1282;1018280;-63
2023/12/31 07:34:48;;;;;;;;;;;;;;;7.40;60.02;98787.55;67556;1282;1016405;-64
2023/12/31 07:37:52;;;;;;;;;;;;;;;7.59;59.98;98777.55;67586;1282;1016452;-65
2023/12/31 07:40:54;;;;;;;;;;;;;;;7.76;59.68;98776.20;67545;1282;1016421;-60
2023/12/31 07:43:57;;;;;;;;;;;;;;;7.93;59.46;98773.46;67544;1282;1016858;-62
2023/12/31 07:47:02;;;;;;;;;;;;;;;8.05;59.00;98771.64;67535;1282;1016508;-62
2023/12/31 07:50:05;;;;;;;;;;;;;;;8.07;59.15;98771.85;67557;1282;1016455;-59
2023/12/31 07:53:08;;;;;;;;;;;;;;;8.20;59.22;98767.73;67520;1282;1017014;-64
2023/12/31 07:56:11;;;;;;;;;;;;;;;8.23;59.36;98763.73;67487;1282;1016429;-61
2023/12/31 07:59:14;;;;;;;;;;;;;;;8.29;59.93;98760.11;67515;1282;1019493;-65
2023/12/31 08:02:17;;;;;;;;;;;;;;;8.39;59.91;98757.98;67559;1282;1016477;-67
2023/12/31 08:05:19;;;;;;;;;;;;;;;8.48;60.05;98754.61;67561;1282;1016442;-66
2023/12/31 08:08:22;;;;;;;;;;;;;;;8.72;59.45;98748.05;67505;1282;1016433;-68
2023/12/31 08:11:25;;;;;;;;;;;;;;;8.89;59.00;98745.91;67514;1282;1016974;-66
2023/12/31 08:14:28;;;;;;;;;;;;;;;8.94;58.94;98739.55;67521;1282;1016466;-67
2023/12/31 08:17:31;;;;;;;;;;;;;;;8.88;59.23;98738.30;67547;1282;1016463;-67
2023/12/31 08:20:34;;;;;;;;;;;;;;;8.98;59.63;98738.46;67528;1282;1016483;-67
2023/12/31 08:23:37;;;;;;;;;;;;;;;9.10;59.58;98729.91;67549;1282;1016362;-68
2023/12/31 08:26:40;;;;;;;;;;;;;;;9.27;58.97;98727.57;67533;1282;1016459;-65
2023/12/31 08:29:47;;;;;;;;;;;;;;;9.44;58.95;98728.87;67503;1282;1018865;-63
2023/12/31 08:32:49;;;;;;;;;;;;;;;9.62;58.68;98726.94;67556;1282;1016380;-67
2023/12/31 08:35:52;;;;;;;;;;;;;;;9.93;57.90;98731.80;67498;1282;1016280;-70
2023/12/31 08:38:55;;;;;;;;;;;;;;;9.90;58.19;98730.41;67523;1282;1016207;-69
2023/12/31 08:41:57;;;;;;;;;;;;;;;10.14;58.01;98729.13;67589;1282;1016460;-64
2023/12/31 08:45:00;;;;;;;;;;;;;;;10.33;57.83;98738.48;67555;1282;1016545;-64
2023/12/31 08:48:03;;;;;;;;;;;;;;;10.37;57.58;98736.17;67491;1282;1016441;-64
2023/12/31 08:51:06;;;;;;;;;;;;;;;10.55;58.09;98733.29;67546;1282;1016262;-64
2023/12/31 08:54:09;;;;;;;;;;;;;;;10.60;58.12;98729.48;67532;1281;1016443;-69
2023/12/31 08:57:11;;;;;;;;;;;;;;;10.75;57.71;98725.20;67571;1282;1016368;-64
2023/12/31 09:00:14;;;;;;;;;;;;;;;10.91;57.49;98727.73;67543;1282;1016458;-65
2023/12/31 09:03:17;;;;;;;;;;;;;;;10.93;57.78;98722.34;67520;1282;1016486;-66
2023/12/31 09:06:20;;;;;;;;;;;;;;;10.99;58.06;98715.48;67542;1282;1015826;-70
2023/12/31 09:09:23;;;;;;;;;;;;;;;11.04;58.05;98711.13;67511;1282;1016482;-64
2023/12/31 09:12:26;;;;;;;;;;;;;;;11.05;58.01;98704.27;67561;1282;1016279;-68
2023/12/31 09:15:28;;;;;;;;;;;;;;;11.13;58.24;98703.89;67510;1282;1016367;-66
2023/12/31 09:18:31;;;;;;;;;;;;;;;11.23;58.17;98700.42;67522;1282;1016447;-68
2023/12/31 09:21:34;;;;;;;;;;;;;;;11.26;58.28;98696.95;65051;1282;5324843;-69
2023/12/31 09:24:37;;;;;;;;;;;;;;;11.19;58.53;98693.73;67511;1282;1016166;-67
2023/12/31 09:27:48;;;;;;;;;;;;;;;11.28;58.57;98688.38;67515;1282;1016301;-69
2023/12/31 09:30:51;;;;;;;;;;;;;;;11.46;58.81;98685.14;67527;1282;1016330;-63
2023/12/31 09:33:53;;;;;;;;;;;;;;;11.63;58.71;98676.14;67499;1282;1016353;-64
2023/12/31 09:36:56;;;;;;;;;;;;;;;11.66;58.56;98671.39;67530;1282;1016739;-70
2023/12/31 09:39:59;;;;;;;;;;;;;;;11.64;58.15;98669.92;67497;1282;1016635;-62
2023/12/31 09:43:02;;;;;;;;;;;;;;;11.69;58.04;98665.20;67574;1282;1016361;-66
2023/12/31 09:46:05;;;;;;;;;;;;;;;11.95;58.11;98657.61;67514;1282;1016837;-69
2023/12/31 09:49:08;;;;;;;;;;;;;;;12.10;57.68;98654.66;67535;1282;1016215;-64
2023/12/31 09:52:11;;;;;;;;;;;;;;;12.14;57.80;98650.06;67526;1282;1016463;-66
2023/12/31 09:55:13;;;;;;;;;;;;;;;12.27;57.62;98646.16;67511;1282;1016342;-63
2023/12/31 09:58:16;;;;;;;;;;;;;;;12.40;57.63;98645.92;67573;1282;1016477;-63
2023/12/31 10:01:19;;;;;;;;;;;;;;;12.57;57.40;98640.50;67525;1282;1016344;-66
2023/12/31 10:04:21;;;;;;;;;;;;;;;12.80;57.46;98634.85;67525;1282;1016376;-64
2023/12/31 10:07:24;;;;;;;;;;;;;;;12.98;56.61;98633.66;67526;1282;1016484;-69
2023/12/31 10:10:27;;;;;;;;;;;;;;;13.08;56.90;98632.55;67497;1282;1016386;-71
2023/12/31 10:13:30;;;;;;;;;;;;;;;13.26;56.70;98630.61;67496;1282;1016419;-68
2023/12/31 10:16:33;;;;;;;;;;;;;;;13.45;56.22;98624.60;67560;1282;1016492;-71
2023/12/31 10:19:36;;;;;;;;;;;;;;;13.60;55.66;98618.33;67532;1282;1016465;-68
2023/12/31 10:22:38;;;;;;;;;;;;;;;13.69;55.66;98612.04;67562;1282;1016470;-67
2023/12/31 10:25:41;;;;;;;;;;;;;;;13.78;55.70;98604.83;67541;1282;1016488;-64
2023/12/31 10:28:44;;;;;;;;;;;;;;;13.96;55.18;98600.85;67497;1282;1016350;-68
2023/12/31 10:31:46;;;;;;;;;;;;;;;14.03;54.96;98596.73;67543;1282;1016424;-67
2023/12/31 10:34:49;;;;;;;;;;;;;;;14.23;54.77;98595.58;67570;1282;1016209;-70
2023/12/31 10:37:52;;;;;;;;;;;;;;;14.11;54.48;98589.45;67502;1282;1016484;-67
2023/12/31 10:40:54;;;;;;;;;;;;;;;14.20;54.63;98592.96;67548;1282;1016515;-68
2023/12/31 10:43:57;;;;;;;;;;;;;;;14.16;54.87;98590.60;67550;1282;1016412;-69
2023/12/31 10:47:00;;;;;;;;;;;;;;;14.26;54.56;98591.41;67513;1282;1016094;-68
2023/12/31 10:50:02;;;;;;;;;;;;;;;14.46;54.09;98587.58;67546;1282;1016215;-70
2023/12/31 10:53:06;;;;;;;;;;;;;;;14.48;53.82;98581.24;67516;1282;1016446;-69
2023/12/31 10:56:09;;;;;;;;;;;;;;;14.48;54.08;98575.62;67565;1282;1016329;-66
2023/12/31 10:59:12;;;;;;;;;;;;;;;14.76;53.35;98569.52;67510;1282;1016421;-67
2023/12/31 11:02:14;;;;;;;;;;;;;;;14.78;52.67;98561.92;67581;1282;1016238;-69
2023/12/31 11:05:17;;;;;;;;;;;;;;;14.72;53.01;98558.93;67563;1282;1016525;-66
2023/12/31 11:08:20;;;;;;;;;;;;;;;14.80;52.32;98554.88;67547;1282;1016446;-67
2023/12/31 11:11:23;;;;;;;;;;;;;;;14.69;52.93;98549.33;67577;1282;1016451;-68
2023/12/31 11:14:29;;;;;;;;;;;;;;;14.66;53.46;98547.41;67516;1282;1016390;-68
2023/12/31 11:17:32;;;;;;;;;;;;;;;14.62;53.18;98545.09;67513;1282;1016333;-67
2023/12/31 11:20:35;;;;;;;;;;;;;;;14.40;53.25;98542.34;67569;1282;1016337;-67
2023/12/31 11:23:37;;;;;;;;;;;;;;;14.23;53.80;98541.59;67575;1282;1017737;-68
2023/12/31 11:26:40;;;;;;;;;;;;;;;14.26;54.02;98538.02;67517;1282;1016491;-66
2023/12/31 11:29:43;;;;;;;;;;;;;;;14.36;53.76;98533.86;67554;1282;1016458;-65
2023/12/31 11:32:45;;;;;;;;;;;;;;;14.41;53.15;98527.11;67569;1282;1016729;-66
2023/12/31 11:35:48;;;;;;;;;;;;;;;14.36;53.57;98518.02;67528;1282;1015832;-62
2023/12/31 11:38:51;;;;;;;;;;;;;;;14.42;53.55;98516.59;67557;1282;1016434;-68
2023/12/31 11:41:53;;;;;;;;;;;;;;;14.51;52.98;98507.44;67588;1282;1016224;-67
2023/12/31 11:44:57;;;;;;;;;;;;;;;14.57;52.98;98500.95;67526;1282;1016477;-69
2023/12/31 11:48:02;;;;;;;;;;;;;;;14.64;52.62;98495.70;67543;1282;1016332;-63
2023/12/31 11:51:05;;;;;;;;;;;;;;;14.54;52.84;98490.80;67535;1282;1016325;-67
2023/12/31 11:54:07;;;;;;;;;;;;;;;14.51;52.87;98484.23;67579;1282;1016438;-71
2023/12/31 11:57:10;;;;;;;;;;;;;;;14.50;53.03;98477.98;67548;1282;1016303;-65
2023/12/31 12:00:13;;;;;;;;;;;;;;;14.45;53.05;98472.39;67546;1282;1016494;-69
2023/12/31 12:03:15;;;;;;;;;;;;;;;14.53;52.63;98474.71;67569;1282;1016537;-67
2023/12/31 12:06:18;;;;;;;;;;;;;;;14.58;52.59;98475.95;67542;1282;1016126;-64
2023/12/31 12:09:21;;;;;;;;;;;;;;;14.64;52.50;98473.84;67572;1282;1016411;-63
2023/12/31 12:12:24;;;;;;;;;;;;;;;14.71;52.55;98471.86;67513;1282;1016403;-63
2023/12/31 12:15:27;;;;;;;;;;;;;;;14.80;52.87;98470.95;67548;1282;1016462;-65
2023/12/31 12:18:29;;;;;;;;;;;;;;;14.88;52.88;98468.36;67570;1282;1016419;-70
2023/12/31 12:21:32;;;;;;;;;;;;;;;14.92;52.67;98463.98;67529;1282;1016422;-70
2023/12/31 12:24:35;;;;;;;;;;;;;;;14.95;52.41;98460.18;67603;1282;1016216;-68
2023/12/31 12:27:38;;;;;;;;;;;;;;;15.05;52.04;98454.09;67544;1282;1016191;-68
2023/12/31 12:30:41;;;;;;;;;;;;;;;15.21;51.88;98451.97;67537;1282;1016351;-62
2023/12/31 12:33:44;;;;;;;;;;;;;;;15.18;51.74;98450.14;67579;1282;1016249;-65
2023/12/31 12:36:46;;;;;;;;;;;;;;;15.12;51.82;98442.41;67502;1282;1016616;-70
2023/12/31 12:39:49;;;;;;;;;;;;;;;15.22;51.36;98435.04;67572;1282;1016973;-67
2023/12/31 12:42:53;;;;;;;;;;;;;;;15.22;51.35;98428.63;67544;1282;1016511;-65
2023/12/31 12:45:55;;;;;;;;;;;;;;;15.37;51.14;98435.44;67582;1282;1018086;-67
2023/12/31 12:48:58;;;;;;;;;;;;;;;15.43;51.04;98444.27;67567;1282;1016206;-64
2023/12/31 12:52:00;;;;;;;;;;;;;;;15.43;51.05;98445.70;67543;1282;1017147;-69
2023/12/31 12:55:03;;;;;;;;;;;;;;;15.48;50.51;98440.86;67566;1282;1016654;-64
2023/12/31 12:58:06;;;;;;;;;;;;;;;15.45;50.30;98436.57;67591;1282;1016536;-64
2023/12/31 13:01:09;;;;;;;;;;;;;;;15.39;50.12;98430.41;67532;1282;1016447;-67
2023/12/31 13:04:12;;;;;;;;;;;;;;;15.33;50.02;98429.81;67585;1282;1016390;-67
2023/12/31 13:07:14;;;;;;;;;;;;;;;15.26;49.74;98421.81;67537;1282;1016147;-66
2023/12/31 13:10:18;;;;;;;;;;;;;;;15.07;50.13;98417.05;67577;1282;1016425;-71
2023/12/31 13:13:20;;;;;;;;;;;;;;;15.09;50.12;98412.48;67566;1282;1016650;-70
2023/12/31 13:16:23;;;;;;;;;;;;;;;15.05;49.91;98403.16;67563;1282;1016352;-67
2023/12/31 13:19:26;;;;;;;;;;;;;;;14.94;50.28;98400.39;67587;1282;1015746;-71
2023/12/31 13:22:31;;;;;;;;;;;;;;;15.05;50.27;98400.19;67542;1282;1018707;-71
2023/12/31 13:25:34;;;;;;;;;;;;;;;15.07;49.79;98391.94;67565;1282;1016152;-71
2023/12/31 13:28:37;;;;;;;;;;;;;;;14.97;49.50;98391.02;67561;1282;1016312;-71
2023/12/31 13:31:39;;;;;;;;;;;;;;;14.82;49.72;98384.70;67579;1282;1016263;-69
2023/12/31 13:34:42;;;;;;;;;;;;;;;14.89;49.89;98378.52;67574;1282;1016173;-69
2023/12/31 13:37:45;;;;;;;;;;;;;;;14.91;49.46;98377.66;67508;1282;1016533;-71
2023/12/31 13:40:50;;;;;;;;;;;;;;;14.83;49.58;98374.77;67560;1282;1017400;-68
2023/12/31 13:43:53;;;;;;;;;;;;;;;14.62;50.19;98369.29;67520;1282;1016846;-71
2023/12/31 13:46:55;;;;;;;;;;;;;;;14.53;50.24;98359.66;67572;1282;1016558;-64
2023/12/31 13:49:58;;;;;;;;;;;;;;;14.28;50.97;98351.21;67558;1282;1017369;-64
2023/12/31 13:53:01;;;;;;;;;;;;;;;14.13;51.25;98330.67;67528;1282;1018867;-66
2023/12/31 13:56:03;;;;;;;;;;;;;;;14.10;51.19;98305.45;67564;1282;1016439;-67
2023/12/31 13:59:07;;;;;;;;;;;;;;;13.99;51.35;98295.27;67565;1282;1018044;-64
2023/12/31 14:02:10;;;;;;;;;;;;;;;13.85;51.52;98311.00;67552;1282;1016297;-70
2023/12/31 14:05:13;;;;;;;;;;;;;;;13.74;51.80;98300.45;67596;1282;1016619;-64
2023/12/31 14:08:16;;;;;;;;;;;;;;;13.79;51.67;98296.94;67499;1282;1017214;-59
2023/12/31 14:11:19;;;;;;;;;;;;;;;13.75;51.73;98304.11;67553;1282;1018326;-65
2023/12/31 14:14:23;;;;;;;;;;;;;;;13.74;52.09;98307.86;67587;1282;1016121;-65
2023/12/31 14:17:29;;;;;;;;;;;;;;;13.78;52.08;98310.53;67576;1282;1016384;-61
2023/12/31 14:20:32;;;;;;;;;;;;;;;13.72;52.27;98306.12;67535;1282;1016520;-64
2023/12/31 14:23:36;;;;;;;;;;;;;;;13.67;52.26;98300.19;67586;1282;1016336;-69
2023/12/31 14:26:40;;;;;;;;;;;;;;;13.60;52.70;98294.93;67585;1282;1016387;-67
2023/12/31 14:29:42;;;;;;;;;;;;;;;13.61;52.75;98285.39;67570;1282;1016486;-61
2023/12/31 14:32:45;;;;;;;;;;;;;;;13.63;52.71;98282.27;67574;1282;1016547;-63
2023/12/31 14:35:48;;;;;;;;;;;;;;;13.66;52.36;98283.36;67517;1282;1016446;-69
2023/12/31 14:38:51;;;;;;;;;;;;;;;13.44;53.00;98278.67;67586;1282;1016187;-64
2023/12/31 14:41:54;;;;;;;;;;;;;;;13.38;52.89;98274.98;67575;1282;1016450;-66
2023/12/31 14:44:56;;;;;;;;;;;;;;;13.16;53.44;98264.89;67558;1282;1016401;-65
2023/12/31 14:47:59;;;;;;;;;;;;;;;13.11;53.39;98263.94;67569;1282;1016819;-66
2023/12/31 14:51:02;;;;;;;;;;;;;;;13.01;53.46;98257.84;67543;1282;1016407;-63
2023/12/31 14:54:04;;;;;;;;;;;;;;;12.83;53.99;98255.08;67584;1282;1016584;-65
2023/12/31 14:57:07;;;;;;;;;;;;;;;12.63;54.36;98255.60;67585;1282;1016050;-66
2023/12/31 15:00:10;;;;;;;;;;;;;;;12.58;54.36;98253.53;67512;1282;1016423;-64
2023/12/31 15:03:13;;;;;;;;;;;;;;;12.46;54.69;98256.88;67588;1282;1016515;-64
2023/12/31 15:06:17;;;;;;;;;;;;;;;12.30;55.14;98252.88;67608;1282;1018314;-66
2023/12/31 15:09:21;;;;;;;;;;;;;;;12.23;54.91;98244.34;67508;1282;1016665;-61
2023/12/31 15:12:24;;;;;;;;;;;;;;;12.17;55.14;98237.45;67581;1282;1016500;-65
2023/12/31 15:15:27;;;;;;;;;;;;;;;12.14;55.26;98236.38;67591;1282;1016113;-63
2023/12/31 15:18:30;;;;;;;;;;;;;;;12.07;55.43;98237.11;67540;1282;1016121;-61
2023/12/31 15:21:33;;;;;;;;;;;;;;;12.01;55.61;98241.09;67534;1282;1016298;-64
2023/12/31 15:24:35;;;;;;;;;;;;;;;12.02;55.66;98242.58;67588;1282;1016232;-69
2023/12/31 15:27:38;;;;;;;;;;;;;;;12.01;55.85;98234.28;67585;1282;1016460;-64
2023/12/31 15:30:41;;;;;;;;;;;;;;;12.08;55.64;98233.92;67544;1282;1016596;-69
2023/12/31 15:33:43;;;;;;;;;;;;;;;11.96;56.28;98234.94;67575;1282;1015902;-63